X  Fechar Dados meteorológicos de METAR da aviação     EHRD Rotterdam The Hague Airport
Temperatura
20°C Temperatura
11°C Ponto de orvalho
56% Umidade



Vento
3 MPH
5 KM/H
1 M/S
3 NÓS



340°
NNO
Condições atuais

Limpo Limpo
Pressão 1018.96 (hPa) - 30.09 (inHg)
Visibilidade 6 (milha) - 9.7 (km)
Aeroporto
Código do aeroporto EHRD

Localização: Rotterdam The Hague Airport
Distância: 23 (mi)

Metar:
EHRD 241755Z AUTO 34003KT 300V020 9999 NSC 20/11 Q1019 NOSIG

Hora: 24-07-2024 19:55 CEST